Time;durP1;ratioP1;P1;durP2;ratioP2;P2;SDS_P1;SDS_P2;PMS_P1;PMS_P2;Temp;Humidity;BMP_temperature;BMP_pressure;BME280_temperature;BME280_humidity;BME280_pressure;Samples;Min_cycle;Max_cycle;Signal;HPM_P1;HPM_P2
2022/04/29 00:00:16;;;;;;;27.67;18.70;;;;;;;;;;5053391;28;20025;-71
2022/04/29 00:02:42;;;;;;;31.77;19.23;;;;;;;;;;5053906;28;20420;-74
2022/04/29 00:05:09;;;;;;;30.38;19.17;;;;;;;;;;5053235;28;20428;-73
2022/04/29 00:07:39;;;;;;;29.85;17.35;;;;;;;;;;5053543;28;20074;-74
2022/04/29 00:10:08;;;;;;;34.42;19.75;;;;;;;;;;5053547;28;20086;-78
2022/04/29 00:12:35;;;;;;;31.17;18.60;;;;;;;;;;5035322;28;20061;-72
2022/04/29 00:15:01;;;;;;;37.00;20.25;;;;;;;;;;5053371;28;20021;-73
2022/04/29 00:17:27;;;;;;;35.00;19.58;;;;;;;;;;5053135;28;20071;-72
2022/04/29 00:19:53;;;;;;;31.27;18.85;;;;;;;;;;5053667;28;20489;-74
2022/04/29 00:22:21;;;;;;;29.30;18.98;;;;;;;;;;5053139;28;20029;-73
2022/04/29 00:24:47;;;;;;;38.50;19.83;;;;;;;;;;5067029;28;20428;-74
2022/04/29 00:27:13;;;;;;;34.50;18.90;;;;;;;;;;5073087;28;20028;-71
2022/04/29 00:29:39;;;;;;;36.10;19.27;;;;;;;;;;5073337;28;20100;-72
2022/04/29 00:32:05;;;;;;;35.83;19.40;;;;;;;;;;5073091;28;20154;-72
2022/04/29 00:34:31;;;;;;;35.15;19.33;;;;;;;;;;5073040;28;20031;-73
2022/04/29 00:36:57;;;;;;;40.38;20.85;;;;;;;;;;5073317;28;20037;-74
2022/04/29 00:39:23;;;;;;;28.42;18.13;;;;;;;;;;5073017;28;20369;-72
2022/04/29 00:41:50;;;;;;;30.35;18.42;;;;;;;;;;5071765;28;20032;-70
2022/04/29 00:44:16;;;;;;;26.50;18.23;;;;;;;;;;5072940;28;20028;-75
2022/04/29 00:46:43;;;;;;;31.27;18.20;;;;;;;;;;5076622;28;20025;-73
2022/04/29 00:49:11;;;;;;;27.85;18.42;;;;;;;;;;5077245;28;20043;-73
2022/04/29 00:51:37;;;;;;;31.63;18.80;;;;;;;;;;5076905;28;20052;-73
2022/04/29 00:54:08;;;;;;;26.60;17.33;;;;;;;;;;5076848;28;20150;-72
2022/04/29 00:56:36;;;;;;;35.63;18.30;;;;;;;;;;5077129;28;20108;-72
2022/04/29 00:59:05;;;;;;;33.38;18.20;;;;;;;;;;5077001;28;20481;-73
2022/04/29 01:01:32;;;;;;;33.67;19.08;;;;;;;;;;5076661;28;20024;-75
2022/04/29 01:03:58;;;;;;;33.90;19.92;;;;;;;;;;5076514;28;20032;-73
2022/04/29 01:06:26;;;;;;;32.38;18.95;;;;;;;;;;5077123;28;20031;-71
2022/04/29 01:08:52;;;;;;;37.92;19.95;;;;;;;;;;5076847;28;20020;-73
2022/04/29 01:11:21;;;;;;;33.67;19.15;;;;;;;;;;5076785;28;20481;-71
2022/04/29 01:13:47;;;;;;;36.70;20.05;;;;;;;;;;5075127;28;20527;-72
2022/04/29 01:16:13;;;;;;;28.88;17.88;;;;;;;;;;5076377;28;20028;-71
2022/04/29 01:18:41;;;;;;;29.30;18.52;;;;;;;;;;5076351;28;20067;-74
2022/04/29 01:21:07;;;;;;;34.85;18.77;;;;;;;;;;5076376;28;20029;-72
2022/04/29 01:23:34;;;;;;;37.85;19.85;;;;;;;;;;5068436;28;20167;-70
2022/04/29 01:26:00;;;;;;;34.67;18.35;;;;;;;;;;5056232;28;20048;-74
2022/04/29 01:28:29;;;;;;;37.95;20.77;;;;;;;;;;5056161;28;20025;-73
2022/04/29 01:30:56;;;;;;;36.97;18.95;;;;;;;;;;5056401;28;20056;-73
2022/04/29 01:33:22;;;;;;;35.38;20.17;;;;;;;;;;5056082;28;20500;-74
2022/04/29 01:35:48;;;;;;;37.08;19.70;;;;;;;;;;5038159;28;20059;-72
2022/04/29 01:38:14;;;;;;;39.28;20.65;;;;;;;;;;5055995;28;20074;-71
2022/04/29 01:40:40;;;;;;;44.22;21.20;;;;;;;;;;5056241;28;20449;-74
2022/04/29 01:43:06;;;;;;;40.65;20.83;;;;;;;;;;5055859;28;20021;-73
2022/04/29 01:45:32;;;;;;;35.55;18.70;;;;;;;;;;5055889;28;20397;-74
2022/04/29 01:47:58;;;;;;;34.38;20.23;;;;;;;;;;5055857;28;20021;-72
2022/04/29 01:50:26;;;;;;;45.03;23.58;;;;;;;;;;5055811;28;20025;-71
2022/04/29 01:52:52;;;;;;;44.65;23.15;;;;;;;;;;5056270;28;20066;-74
2022/04/29 01:55:18;;;;;;;34.50;19.88;;;;;;;;;;5055832;28;20029;-73
2022/04/29 01:57:45;;;;;;;35.78;20.75;;;;;;;;;;5037367;28;20056;-72
2022/04/29 02:00:11;;;;;;;34.67;18.98;;;;;;;;;;5055580;28;20116;-72
2022/04/29 02:02:37;;;;;;;34.90;19.55;;;;;;;;;;5055803;28;20029;-74
2022/04/29 02:05:03;;;;;;;34.20;19.35;;;;;;;;;;5055442;28;20094;-73
2022/04/29 02:07:29;;;;;;;33.30;19.83;;;;;;;;;;5037563;28;20107;-72
2022/04/29 02:09:56;;;;;;;35.90;20.55;;;;;;;;;;5055452;28;20528;-75
2022/04/29 02:12:22;;;;;;;37.40;20.17;;;;;;;;;;5055376;28;20032;-73
2022/04/29 02:14:48;;;;;;;28.77;18.60;;;;;;;;;;5055509;28;20025;-71
2022/04/29 02:17:14;;;;;;;35.33;20.73;;;;;;;;;;5055578;28;20025;-71
2022/04/29 02:19:40;;;;;;;37.15;20.38;;;;;;;;;;5055480;28;20032;-73
2022/04/29 02:22:08;;;;;;;32.20;19.52;;;;;;;;;;5055216;28;20021;-70
2022/04/29 02:24:34;;;;;;;33.10;19.67;;;;;;;;;;5054897;28;20040;-72
2022/04/29 02:27:02;;;;;;;35.67;18.23;;;;;;;;;;5055641;28;20477;-71
2022/04/29 02:29:28;;;;;;;30.70;18.38;;;;;;;;;;5055043;28;20056;-75
2022/04/29 02:31:55;;;;;;;36.83;18.65;;;;;;;;;;5055272;28;20017;-72
2022/04/29 02:34:21;;;;;;;40.17;18.67;;;;;;;;;;5055255;28;20029;-73
2022/04/29 02:36:47;;;;;;;28.65;19.20;;;;;;;;;;5054953;28;20025;-72
2022/04/29 02:39:14;;;;;;;30.77;18.23;;;;;;;;;;5055175;28;20036;-72
2022/04/29 02:41:40;;;;;;;29.48;18.02;;;;;;;;;;5054827;28;20103;-74
2022/04/29 02:44:06;;;;;;;29.63;17.77;;;;;;;;;;5036883;28;20025;-74
2022/04/29 02:46:33;;;;;;;32.25;18.48;;;;;;;;;;5054820;28;20028;-75
2022/04/29 02:48:59;;;;;;;35.20;19.48;;;;;;;;;;5054691;28;20024;-73
2022/04/29 02:51:25;;;;;;;39.20;19.35;;;;;;;;;;5054664;28;20025;-72
2022/04/29 02:53:51;;;;;;;33.67;19.77;;;;;;;;;;5055074;28;20029;-74
2022/04/29 02:56:18;;;;;;;36.65;19.75;;;;;;;;;;5054526;28;20029;-76
2022/04/29 02:58:44;;;;;;;32.60;17.80;;;;;;;;;;5036547;28;20036;-72
2022/04/29 03:01:10;;;;;;;31.08;18.08;;;;;;;;;;5054467;28;20031;-72
2022/04/29 03:03:36;;;;;;;36.10;19.45;;;;;;;;;;5054601;28;20033;-74
2022/04/29 03:06:02;;;;;;;36.80;18.33;;;;;;;;;;5054367;28;20025;-72
2022/04/29 03:08:28;;;;;;;32.60;18.63;;;;;;;;;;5053440;28;20052;-73
2022/04/29 03:10:54;;;;;;;32.20;18.42;;;;;;;;;;5054201;28;20550;-73
2022/04/29 03:13:20;;;;;;;34.75;19.17;;;;;;;;;;5054480;28;20504;-74
2022/04/29 03:15:46;;;;;;;30.13;18.60;;;;;;;;;;5054084;28;20068;-70
2022/04/29 03:18:20;;;;;;;32.78;18.42;;;;;;;;;;5054433;28;20381;-71
2022/04/29 03:20:47;;;;;;;31.88;19.25;;;;;;;;;;5035979;28;20029;-73
2022/04/29 03:23:13;;;;;;;33.40;18.63;;;;;;;;;;5053742;28;20040;-70
2022/04/29 03:25:42;;;;;;;41.42;19.35;;;;;;;;;;5054255;28;20021;-72
2022/04/29 03:28:09;;;;;;;29.35;18.45;;;;;;;;;;5053927;28;20021;-75
2022/04/29 03:30:35;;;;;;;35.60;18.63;;;;;;;;;;5054158;28;20021;-71
2022/04/29 03:33:03;;;;;;;40.97;20.27;;;;;;;;;;5054078;28;20021;-74
2022/04/29 03:35:30;;;;;;;36.28;18.38;;;;;;;;;;5054094;28;20025;-70
2022/04/29 03:37:56;;;;;;;38.70;21.98;;;;;;;;;;5054034;28;20028;-74
2022/04/29 03:40:23;;;;;;;33.63;20.40;;;;;;;;;;5053719;28;20100;-73
2022/04/29 03:42:50;;;;;;;33.45;19.17;;;;;;;;;;5053982;28;20359;-71
2022/04/29 03:45:16;;;;;;;36.03;18.42;;;;;;;;;;5053845;28;20115;-74
2022/04/29 03:47:43;;;;;;;31.23;18.58;;;;;;;;;;5053579;28;20024;-75
2022/04/29 03:50:09;;;;;;;38.10;18.58;;;;;;;;;;5053552;28;20440;-74
2022/04/29 03:52:45;;;;;;;35.53;18.30;;;;;;;;;;5053821;28;20025;-73
2022/04/29 03:55:11;;;;;;;34.28;17.75;;;;;;;;;;5053785;28;20032;-72
2022/04/29 03:57:37;;;;;;;33.25;19.10;;;;;;;;;;5053660;28;20028;-73
2022/04/29 04:00:04;;;;;;;37.33;19.88;;;;;;;;;;5053378;28;20052;-72
2022/04/29 04:02:30;;;;;;;39.10;20.35;;;;;;;;;;5053378;28;20029;-72
2022/04/29 04:04:56;;;;;;;41.00;20.13;;;;;;;;;;5053254;28;20048;-72
2022/04/29 04:07:22;;;;;;;33.75;19.70;;;;;;;;;;5035417;28;20025;-72
2022/04/29 04:09:48;;;;;;;45.63;21.27;;;;;;;;;;5053556;28;20035;-74
2022/04/29 04:12:14;;;;;;;42.08;20.48;;;;;;;;;;5053239;28;20024;-72
2022/04/29 04:14:40;;;;;;;40.60;19.75;;;;;;;;;;5053137;28;20029;-72
2022/04/29 04:17:07;;;;;;;36.78;19.27;;;;;;;;;;5053161;28;20473;-74
2022/04/29 04:19:35;;;;;;;41.28;21.15;;;;;;;;;;5052928;28;20103;-72
2022/04/29 04:22:01;;;;;;;41.72;20.83;;;;;;;;;;5053395;28;20028;-73
2022/04/29 04:24:27;;;;;;;37.97;20.30;;;;;;;;;;5052741;28;20056;-73
2022/04/29 04:26:53;;;;;;;42.10;20.20;;;;;;;;;;5053119;28;20074;-72
2022/04/29 04:29:19;;;;;;;41.15;21.20;;;;;;;;;;5053053;28;20025;-71
2022/04/29 04:31:45;;;;;;;47.88;21.95;;;;;;;;;;5053290;28;20021;-74
2022/04/29 04:36:56;;;;;;;41.17;20.58;;;;;;;;;;5053060;28;20409;-74
2022/04/29 04:39:23;;;;;;;41.00;21.48;;;;;;;;;;5052979;28;20033;-73
2022/04/29 04:41:49;;;;;;;45.92;21.02;;;;;;;;;;5035104;28;20036;-75
2022/04/29 04:44:15;;;;;;;42.67;20.77;;;;;;;;;;5052848;28;20036;-71
2022/04/29 04:46:41;;;;;;;43.90;20.77;;;;;;;;;;5052917;28;20535;-71
2022/04/29 04:49:07;;;;;;;39.50;21.90;;;;;;;;;;5052891;28;20029;-73
2022/04/29 04:51:33;;;;;;;36.97;18.67;;;;;;;;;;5053144;28;20081;-73
2022/04/29 04:53:59;;;;;;;46.40;21.35;;;;;;;;;;5052814;28;20395;-71
2022/04/29 04:56:26;;;;;;;42.95;21.50;;;;;;;;;;5052820;28;20048;-73
2022/04/29 04:58:52;;;;;;;42.67;21.40;;;;;;;;;;5052753;28;20402;-73
2022/04/29 05:01:18;;;;;;;40.30;21.42;;;;;;;;;;5053028;28;20025;-73
2022/04/29 05:03:44;;;;;;;47.78;22.77;;;;;;;;;;5034745;28;20429;-74
2022/04/29 05:06:10;;;;;;;50.92;23.35;;;;;;;;;;5052985;28;20075;-73
2022/04/29 05:08:36;;;;;;;42.90;22.05;;;;;;;;;;5052721;28;20096;-73
2022/04/29 05:11:02;;;;;;;37.92;23.08;;;;;;;;;;5052940;28;20067;-73
2022/04/29 05:13:28;;;;;;;38.50;22.85;;;;;;;;;;5034782;28;20035;-72
2022/04/29 05:15:55;;;;;;;45.40;22.08;;;;;;;;;;5052557;28;20025;-70
2022/04/29 05:18:21;;;;;;;39.78;21.48;;;;;;;;;;5052590;28;20488;-71
2022/04/29 05:20:48;;;;;;;44.92;22.75;;;;;;;;;;5034709;28;20024;-72
2022/04/29 05:23:14;;;;;;;51.65;23.75;;;;;;;;;;5052313;28;20068;-74
2022/04/29 05:25:40;;;;;;;46.03;22.83;;;;;;;;;;5052557;28;20473;-73
2022/04/29 05:28:07;;;;;;;43.80;22.90;;;;;;;;;;5053046;28;20025;-72
2022/04/29 05:30:33;;;;;;;40.35;21.83;;;;;;;;;;5053093;28;20032;-72
2022/04/29 05:32:59;;;;;;;47.15;23.60;;;;;;;;;;5056418;28;20021;-73
2022/04/29 05:35:25;;;;;;;44.72;23.27;;;;;;;;;;5056123;28;20017;-73
2022/04/29 05:37:51;;;;;;;54.38;24.35;;;;;;;;;;5056581;28;20462;-73
2022/04/29 05:43:02;;;;;;;43.78;22.88;;;;;;;;;;5055993;28;20048;-73
2022/04/29 05:45:29;;;;;;;46.67;23.63;;;;;;;;;;5037833;28;20120;-73
2022/04/29 05:47:55;;;;;;;49.78;23.17;;;;;;;;;;5056077;28;20021;-72
2022/04/29 05:50:21;;;;;;;45.63;22.65;;;;;;;;;;5056066;28;20028;-73
2022/04/29 05:52:48;;;;;;;44.25;23.50;;;;;;;;;;5055766;28;20512;-74
2022/04/29 05:55:14;;;;;;;42.10;23.63;;;;;;;;;;5055698;28;20070;-71
2022/04/29 05:57:40;;;;;;;45.67;22.88;;;;;;;;;;5056226;28;20036;-73
2022/04/29 06:00:07;;;;;;;43.55;21.25;;;;;;;;;;5037746;28;20028;-72
2022/04/29 06:02:33;;;;;;;48.78;24.65;;;;;;;;;;5056091;28;20025;-71
2022/04/29 06:05:03;;;;;;;36.78;21.27;;;;;;;;;;5056025;28;20108;-74
2022/04/29 06:07:29;;;;;;;42.47;22.90;;;;;;;;;;5055796;28;20025;-72
2022/04/29 06:09:55;;;;;;;41.15;22.88;;;;;;;;;;5037544;28;20040;-72
2022/04/29 06:12:21;;;;;;;43.75;21.77;;;;;;;;;;5055369;28;20103;-74
2022/04/29 06:14:47;;;;;;;40.80;23.10;;;;;;;;;;5055266;28;20068;-70
2022/04/29 06:17:13;;;;;;;42.45;22.60;;;;;;;;;;5055372;28;20074;-72
2022/04/29 06:19:40;;;;;;;45.67;22.60;;;;;;;;;;5055296;28;20481;-73
2022/04/29 06:22:06;;;;;;;41.42;21.23;;;;;;;;;;5055541;28;20025;-75
2022/04/29 06:24:32;;;;;;;38.38;21.63;;;;;;;;;;5055017;28;20045;-75
2022/04/29 06:26:58;;;;;;;44.13;23.10;;;;;;;;;;5055133;28;20060;-72
2022/04/29 06:29:25;;;;;;;43.42;22.27;;;;;;;;;;5055670;28;20028;-73
2022/04/29 06:31:51;;;;;;;43.70;22.25;;;;;;;;;;5055092;28;20043;-71
2022/04/29 06:34:17;;;;;;;40.28;22.67;;;;;;;;;;5055060;28;20057;-71
2022/04/29 06:36:43;;;;;;;39.10;21.58;;;;;;;;;;5055017;28;20021;-71
2022/04/29 06:39:09;;;;;;;47.45;22.70;;;;;;;;;;5055164;28;20032;-69
2022/04/29 06:41:36;;;;;;;46.97;24.00;;;;;;;;;;5055405;28;20028;-69
2022/04/29 06:44:02;;;;;;;45.70;22.48;;;;;;;;;;5054762;28;20029;-70
2022/04/29 06:46:28;;;;;;;42.92;21.77;;;;;;;;;;5054783;28;20025;-70
2022/04/29 06:48:56;;;;;;;45.80;23.83;;;;;;;;;;5054967;28;20469;-70
2022/04/29 06:51:25;;;;;;;42.42;22.75;;;;;;;;;;5054660;28;20071;-68
2022/04/29 06:53:51;;;;;;;45.97;24.42;;;;;;;;;;5054587;28;20025;-71
2022/04/29 06:56:18;;;;;;;42.72;22.23;;;;;;;;;;5054590;28;20090;-70
2022/04/29 06:58:44;;;;;;;43.33;22.50;;;;;;;;;;5054514;28;20481;-70
2022/04/29 07:01:12;;;;;;;42.05;21.98;;;;;;;;;;5054498;28;20025;-69
2022/04/29 07:03:39;;;;;;;38.28;22.17;;;;;;;;;;5054623;28;20469;-69
2022/04/29 07:06:06;;;;;;;41.55;22.40;;;;;;;;;;5054402;28;20021;-69
2022/04/29 07:08:32;;;;;;;45.03;23.05;;;;;;;;;;5054322;28;20028;-69
2022/04/29 07:10:58;;;;;;;47.70;23.23;;;;;;;;;;5054241;28;20021;-69
2022/04/29 07:13:24;;;;;;;36.97;23.05;;;;;;;;;;5054481;28;20385;-70
2022/04/29 07:15:50;;;;;;;47.17;23.92;;;;;;;;;;5054071;28;20033;-69
2022/04/29 07:18:17;;;;;;;36.83;22.83;;;;;;;;;;5054150;28;20021;-69
2022/04/29 07:20:43;;;;;;;40.97;23.60;;;;;;;;;;5054092;28;20024;-69
2022/04/29 07:23:09;;;;;;;40.90;21.27;;;;;;;;;;5053908;28;20123;-69
2022/04/29 07:25:35;;;;;;;41.45;22.35;;;;;;;;;;5054271;28;20551;-70
2022/04/29 07:28:01;;;;;;;37.45;23.23;;;;;;;;;;5053977;28;20029;-69
2022/04/29 07:30:28;;;;;;;38.28;23.08;;;;;;;;;;5054132;28;20025;-70
2022/04/29 07:32:54;;;;;;;34.33;22.48;;;;;;;;;;5054130;28;20043;-70
2022/04/29 07:43:34;;;;;;;35.00;22.65;;;;;;;;;;5053633;28;20567;-70
2022/04/29 07:46:01;;;;;;;46.10;23.25;;;;;;;;;;5053657;28;20024;-70
2022/04/29 07:48:27;;;;;;;38.63;24.13;;;;;;;;;;5053629;28;20610;-70
2022/04/29 07:50:54;;;;;;;32.90;20.98;;;;;;;;;;5053586;28;20024;-70
2022/04/29 07:53:20;;;;;;;34.65;21.98;;;;;;;;;;5053348;28;20052;-69
2022/04/29 07:55:46;;;;;;;33.20;22.05;;;;;;;;;;5053297;28;20021;-69
2022/04/29 07:58:12;;;;;;;37.50;20.52;;;;;;;;;;5053416;28;20032;-70
2022/04/29 08:00:38;;;;;;;34.40;21.88;;;;;;;;;;5053644;28;20051;-70
2022/04/29 08:03:05;;;;;;;36.38;22.90;;;;;;;;;;5053339;28;20025;-69
2022/04/29 08:05:31;;;;;;;35.83;23.08;;;;;;;;;;5053260;28;20508;-70
2022/04/29 08:08:01;;;;;;;39.25;23.83;;;;;;;;;;5053597;28;20029;-70
2022/04/29 08:10:28;;;;;;;33.22;23.10;;;;;;;;;;5053324;28;20021;-70
2022/04/29 08:12:54;;;;;;;41.97;24.25;;;;;;;;;;5053293;28;20158;-69
2022/04/29 08:15:20;;;;;;;36.88;22.98;;;;;;;;;;5053696;28;20457;-68
2022/04/29 08:17:46;;;;;;;39.30;23.42;;;;;;;;;;5053139;28;20112;-68
2022/04/29 08:20:12;;;;;;;39.28;24.92;;;;;;;;;;5053422;28;20056;-75
2022/04/29 08:22:40;;;;;;;39.50;23.65;;;;;;;;;;5053175;28;20025;-73
2022/04/29 08:25:06;;;;;;;37.13;22.45;;;;;;;;;;5053342;28;20040;-74
2022/04/29 08:27:32;;;;;;;38.95;24.50;;;;;;;;;;5053308;28;20495;-75
2022/04/29 08:29:58;;;;;;;41.00;24.38;;;;;;;;;;5053075;28;20025;-74
2022/04/29 08:32:24;;;;;;;39.10;24.85;;;;;;;;;;5053012;28;20390;-74
2022/04/29 08:34:51;;;;;;;34.47;23.33;;;;;;;;;;5035119;28;20444;-73
2022/04/29 08:37:18;;;;;;;37.22;24.27;;;;;;;;;;5053045;28;20079;-73
2022/04/29 08:39:44;;;;;;;37.72;23.40;;;;;;;;;;5052987;28;20535;-75
2022/04/29 08:42:11;;;;;;;37.30;23.05;;;;;;;;;;5052972;28;20025;-72
2022/04/29 08:44:40;;;;;;;36.10;21.95;;;;;;;;;;5052854;28;20079;-66
2022/04/29 08:47:07;;;;;;;39.20;24.27;;;11.10;99.90;;;;;;5052881;28;20025;-64
2022/04/29 08:49:34;;;;;;;34.30;23.17;;;17.20;99.90;;;;;;5053443;28;20025;-70
2022/04/29 08:52:03;;;;;;;35.15;23.27;;;17.80;99.90;;;;;;5053438;28;20017;-72
2022/04/29 09:00:19;;;;;;;31.65;22.90;;;19.00;99.90;;;;;;4991537;28;20495;-69
2022/04/29 09:02:44;;;;;;;33.55;24.15;;;19.50;99.90;;;;;;4991530;28;20530;-70
2022/04/29 09:05:11;;;;;;;29.80;21.30;;;20.10;99.90;;;;;;5020003;28;20041;-71
2022/04/29 09:07:55;;;;;;;31.77;22.42;;;20.50;99.90;;;;;;5056082;28;20017;-72
2022/04/29 09:10:25;;;;;;;31.33;23.45;;;19.90;99.90;;;;;;5056587;28;20079;-71
2022/04/29 09:12:52;;;;;;;30.33;23.58;;;19.40;99.90;;;;;;5056566;28;20018;-71
2022/04/29 09:15:18;;;;;;;34.50;22.52;;;19.20;99.90;;;;;;5056389;28;20021;-71
2022/04/29 09:17:48;;;;;;;33.78;23.50;;;18.70;99.90;;;;;;5056758;28;20020;-71
2022/04/29 09:20:21;;;;;;;38.65;23.70;;;18.90;99.90;;;;;;5056477;28;20024;-72
2022/04/29 09:22:50;;;;;;;29.83;21.30;;;21.10;99.90;;;;;;5056463;28;20075;-73
2022/04/29 09:25:17;;;;;;;31.95;22.63;;;23.70;99.90;;;;;;5056536;28;20032;-69
2022/04/29 09:28:03;;;;;;;27.58;21.55;;;24.50;98.70;;;;;;5056287;28;20017;-70
2022/04/29 09:30:33;;;;;;;31.23;22.27;;;25.30;97.20;;;;;;5056729;28;20021;-71
2022/04/29 09:32:58;;;;;;;30.85;22.20;;;24.30;96.50;;;;;;5056188;28;20017;-71
2022/04/29 09:35:37;;;;;;;28.52;19.80;;;24.40;95.50;;;;;;5056385;28;20036;-71
2022/04/29 09:40:48;;;;;;;28.98;21.15;;;24.40;94.20;;;;;;5056346;28;20114;-70
2022/04/29 09:43:13;;;;;;;28.48;19.95;;;25.70;94.10;;;;;;5055960;28;20428;-72
2022/04/29 09:45:39;;;;;;;26.55;21.02;;;28.30;90.80;;;;;;5056148;28;20103;-71
2022/04/29 09:48:08;;;;;;;26.48;20.90;;;28.10;88.80;;;;;;5055887;28;20486;-71
2022/04/29 09:51:04;;;;;;;27.23;21.33;;;28.50;87.60;;;;;;5055814;28;20025;-72
2022/04/29 09:53:30;;;;;;;26.23;20.40;;;30.90;82.20;;;;;;5043118;28;20025;-71
2022/04/29 09:56:12;;;;;;;24.95;19.17;;;31.70;75.60;;;;;;5055832;28;20017;-71
2022/04/29 09:58:38;;;;;;;24.95;19.83;;;32.30;72.60;;;;;;5055961;28;20384;-71
2022/04/29 10:01:04;;;;;;;24.70;19.20;;;32.30;69.10;;;;;;5055653;28;20024;-71
2022/04/29 10:03:30;;;;;;;23.95;19.83;;;31.90;70.00;;;;;;5055553;28;20036;-71
2022/04/29 10:05:57;;;;;;;23.83;20.20;;;32.30;67.80;;;;;;5055875;28;20017;-72
2022/04/29 10:08:25;;;;;;;24.25;20.23;;;32.90;65.80;;;;;;5055500;28;20497;-70
2022/04/29 10:10:52;;;;;;;24.02;20.90;;;32.50;64.20;;;;;;5055457;28;20025;-71
2022/04/29 10:13:21;;;;;;;25.02;19.95;;;32.10;64.80;;;;;;5037552;28;20409;-71
2022/04/29 10:15:47;;;;;;;25.20;21.10;;;32.60;64.00;;;;;;5055311;28;20021;-71
2022/04/29 10:21:17;;;;;;;25.25;19.88;;;32.20;61.90;;;;;;5055125;28;20512;-71
2022/04/29 10:23:48;;;;;;;27.50;19.80;;;31.80;63.40;;;;;;5055049;28;20120;-72
2022/04/29 10:26:24;;;;;;;25.73;20.70;;;31.70;62.20;;;;;;5055236;28;20025;-72
2022/04/29 10:28:52;;;;;;;29.05;21.42;;;31.80;61.60;;;;;;5055767;28;20061;-71
2022/04/29 10:31:20;;;;;;;25.02;20.77;;;32.70;62.10;;;;;;5055145;28;20029;-71
2022/04/29 10:33:46;;;;;;;24.20;19.83;;;33.20;61.90;;;;;;5055133;28;20466;-71
2022/04/29 10:36:16;;;;;;;27.63;21.00;;;33.60;60.50;;;;;;5054989;28;20029;-73
2022/04/29 10:38:48;;;;;;;21.00;18.40;;;33.30;59.60;;;;;;5054920;28;20439;-71
2022/04/29 10:41:25;;;;;;;23.40;18.23;;;32.90;60.20;;;;;;5054947;28;20029;-72
2022/04/29 10:43:51;;;;;;;22.73;18.83;;;32.90;60.90;;;;;;5054822;28;20033;-71
2022/04/29 10:46:22;;;;;;;24.58;19.17;;;33.80;58.40;;;;;;5055362;28;20078;-72
2022/04/29 10:48:50;;;;;;;23.00;18.55;;;32.90;58.90;;;;;;5055254;28;20029;-71
2022/04/29 10:51:18;;;;;;;25.95;18.77;;;32.90;59.30;;;;;;5054744;28;20052;-71
2022/04/29 10:53:55;;;;;;;;;;;32.60;59.50;;;;;;5055144;28;20103;-71
2022/04/29 10:56:27;;;;;;;23.75;19.45;;;31.60;59.40;;;;;;5054926;28;19905;-72
2022/04/29 10:58:54;;;;;;;24.35;20.23;;;31.00;61.00;;;;;;5054587;28;20040;-71
2022/04/29 11:01:28;;;;;;;22.38;19.10;;;31.30;60.30;;;;;;5054573;28;20025;-71
2022/04/29 11:03:54;;;;;;;24.13;19.10;;;31.90;60.10;;;;;;5054999;28;20013;-71
2022/04/29 11:06:20;;;;;;;24.70;18.80;;;31.70;61.10;;;;;;5054730;28;20021;-71
2022/04/29 11:08:46;;;;;;;26.45;20.27;;;30.70;61.20;;;;;;5054434;28;20024;-71
2022/04/29 11:11:12;;;;;;;28.27;20.17;;;31.00;60.90;;;;;;5054326;28;20028;-71
2022/04/29 11:13:45;;;;;;;23.60;18.83;;;31.50;60.30;;;;;;5054267;28;20382;-71
2022/04/29 11:16:14;;;;;;;26.25;19.88;;;30.90;61.70;;;;;;5054180;28;20031;-71
2022/04/29 11:18:42;;;;;;;21.00;18.63;;;31.60;60.90;;;;;;5054181;28;20027;-71
2022/04/29 11:26:47;;;;;;;25.60;20.38;;;32.40;58.90;;;;;;5054371;28;20026;-71
2022/04/29 11:29:14;;;;;;;25.67;17.92;;;32.40;58.40;;;;;;5053530;28;20028;-72
2022/04/29 11:31:40;;;;;;;22.02;18.48;;;32.00;58.60;;;;;;5053918;28;20020;-72
2022/04/29 11:34:08;;;;;;;25.98;18.80;;;32.40;58.80;;;;;;5053888;28;20083;-71
2022/04/29 11:36:33;;;;;;;21.02;17.38;;;32.50;58.60;;;;;;5053860;28;20028;-71
2022/04/29 11:38:59;;;;;;;22.73;17.40;;;32.00;58.80;;;;;;5054112;28;20025;-71
2022/04/29 11:41:28;;;;;;;23.98;18.38;;;31.00;59.50;;;;;;5053755;28;20025;-70
2022/04/29 11:43:54;;;;;;;24.90;17.27;;;29.70;61.60;;;;;;5053728;28;20562;-71
2022/04/29 11:46:21;;;;;;;28.15;19.30;;;27.20;64.70;;;;;;5053696;28;20021;-71
2022/04/29 11:48:58;;;;;;;26.38;19.35;;;26.00;68.80;;;;;;5053666;28;20025;-70
2022/04/29 11:51:28;;;;;;;25.60;19.50;;;25.00;69.60;;;;;;5053979;28;20025;-71
2022/04/29 11:53:55;;;;;;;25.90;19.02;;;24.30;71.00;;;;;;5054174;28;20052;-71
2022/04/29 11:56:22;;;;;;;24.15;17.73;;;23.90;71.60;;;;;;5053583;28;20028;-71
2022/04/29 11:58:47;;;;;;;30.00;18.73;;;23.90;73.80;;;;;;5035605;28;20489;-70
2022/04/29 12:01:17;;;;;;;27.63;17.85;;;23.40;74.00;;;;;;5053429;28;20035;-71
2022/04/29 12:03:49;;;;;;;29.38;18.90;;;23.30;76.80;;;;;;5053324;28;20029;-71
2022/04/29 12:06:16;;;;;;;28.38;18.13;;;23.40;74.10;;;;;;5053642;28;20021;-71
2022/04/29 12:08:42;;;;;;;29.77;19.73;;;23.40;75.00;;;;;;5053888;28;20104;-71
2022/04/29 12:11:08;;;;;;;24.23;17.90;;;23.20;75.60;;;;;;5053316;28;20064;-71
2022/04/29 12:13:36;;;;;;;31.27;18.55;;;23.00;76.80;;;;;;5035470;28;20025;-71
2022/04/29 12:16:02;;;;;;;24.02;17.00;;;23.00;76.10;;;;;;5053328;28;20025;-71
2022/04/29 12:18:45;;;;;;;27.38;18.15;;;23.20;76.60;;;;;;5035411;28;20024;-71
2022/04/29 12:21:12;;;;;;;31.08;18.85;;;22.90;78.40;;;;;;5053219;28;20032;-71
2022/04/29 12:23:38;;;;;;;29.42;18.65;;;23.00;76.00;;;;;;5052868;28;20068;-71
2022/04/29 12:26:04;;;;;;;27.40;17.83;;;23.00;77.50;;;;;;5053702;28;20049;-70
2022/04/29 12:28:31;;;;;;;26.65;18.30;;;22.80;78.50;;;;;;5053098;28;20055;-72
2022/04/29 12:37:10;;;;;;;25.40;18.40;;;22.60;78.50;;;;;;5052830;28;20039;-71
2022/04/29 12:39:37;;;;;;;23.50;16.10;;;22.40;78.20;;;;;;5053689;28;20528;-71
2022/04/29 12:42:08;;;;;;;28.35;17.88;;;22.40;77.40;;;;;;5057120;28;20074;-71
2022/04/29 12:45:04;;;;;;;27.42;17.77;;;22.50;77.40;;;;;;5057347;28;20021;-71
2022/04/29 12:47:38;;;;;;;30.52;18.27;;;22.10;78.40;;;;;;5051669;28;20052;-70
2022/04/29 12:50:31;;;;;;;27.50;16.17;;;22.00;78.50;;;;;;5057059;28;20025;-71
2022/04/29 12:53:02;;;;;;;25.95;17.20;;;22.20;79.00;;;;;;5057256;28;20071;-71
2022/04/29 12:55:35;;;;;;;28.40;16.33;;;22.20;78.30;;;;;;5056874;28;20036;-71
2022/04/29 12:58:19;;;;;;;23.30;16.08;;;22.20;78.90;;;;;;5056848;28;20389;-71
2022/04/29 13:01:06;;;;;;;20.92;14.43;;;22.40;79.40;;;;;;5057136;28;20029;-71
2022/04/29 13:03:32;;;;;;;21.60;15.95;;;22.80;79.10;;;;;;5056711;28;20048;-71
2022/04/29 13:05:59;;;;;;;25.17;16.80;;;22.80;78.40;;;;;;5057009;28;20070;-70
2022/04/29 13:08:24;;;;;;;22.95;16.63;;;23.00;80.10;;;;;;5056693;28;20029;-71
2022/04/29 13:10:53;;;;;;;26.35;16.70;;;22.80;79.10;;;;;;5057144;28;20074;-71
2022/04/29 13:13:21;;;;;;;25.98;15.70;;;22.40;78.40;;;;;;5056542;28;20032;-71
2022/04/29 13:15:47;;;;;;;27.10;16.25;;;22.60;81.30;;;;;;5056424;28;20025;-71
2022/04/29 13:18:14;;;;;;;23.55;16.45;;;22.70;79.00;;;;;;5056756;28;20029;-71
2022/04/29 13:20:42;;;;;;;23.83;16.05;;;22.80;79.80;;;;;;5056459;28;20083;-71
2022/04/29 13:23:09;;;;;;;24.38;17.45;;;22.80;77.90;;;;;;5056162;28;20041;-71
2022/04/29 13:25:35;;;;;;;26.95;15.57;;;22.90;78.30;;;;;;5056623;28;20432;-71
2022/04/29 13:28:01;;;;;;;24.08;16.38;;;22.90;79.60;;;;;;5056249;28;20455;-71
2022/04/29 13:30:27;;;;;;;22.88;15.25;;;22.90;77.40;;;;;;5056518;28;20060;-71
2022/04/29 13:32:53;;;;;;;20.70;15.75;;;22.90;80.60;;;;;;5056744;28;20024;-71
2022/04/29 13:35:19;;;;;;;22.88;15.05;;;22.80;78.30;;;;;;5056142;28;20029;-71
2022/04/29 13:37:45;;;;;;;21.88;14.43;;;22.40;80.30;;;;;;5056121;28;20017;-70
2022/04/29 13:40:11;;;;;;;21.20;15.65;;;22.70;80.20;;;;;;5056096;28;20496;-71
2022/04/29 13:42:37;;;;;;;19.42;13.60;;;22.90;78.20;;;;;;5056041;28;20102;-71
2022/04/29 13:45:05;;;;;;;23.50;14.13;;;22.90;79.80;;;;;;5055937;28;20028;-71
2022/04/29 13:47:33;;;;;;;20.92;12.93;;;22.70;79.30;;;;;;5056239;28;20075;-71
2022/04/29 13:49:59;;;;;;;20.88;13.27;;;22.80;80.20;;;;;;5056171;28;20366;-71
2022/04/29 13:55:12;;;;;;;19.70;13.43;;;23.10;79.10;;;;;;5055853;28;20079;-71
2022/04/29 13:57:39;;;;;;;22.70;13.98;;;23.10;78.60;;;;;;5055606;28;20017;-71
2022/04/29 14:00:06;;;;;;;19.63;12.63;;;23.10;77.70;;;;;;5037826;28;20032;-71
2022/04/29 14:02:32;;;;;;;20.05;13.15;;;23.20;80.40;;;;;;5055655;28;20024;-71
2022/04/29 14:05:01;;;;;;;19.73;13.95;;;23.00;78.60;;;;;;5055758;28;20029;-71
2022/04/29 14:07:26;;;;;;;19.17;13.75;;;23.00;78.80;;;;;;5055816;28;20021;-71
2022/04/29 14:09:52;;;;;;;21.50;13.32;;;22.90;79.00;;;;;;5055819;28;20535;-71
2022/04/29 14:12:17;;;;;;;24.05;13.63;;;23.00;80.50;;;;;;5055478;28;20021;-71
2022/04/29 14:14:43;;;;;;;21.88;14.07;;;22.90;79.60;;;;;;5055641;28;20133;-71